Time;durP1;ratioP1;P1;durP2;ratioP2;P2;SDS_P1;SDS_P2;PMS_P1;PMS_P2;Temp;Humidity;BMP_temperature;BMP_pressure;BME280_temperature;BME280_humidity;BME280_pressure;Samples;Min_cycle;Max_cycle;Signal;HPM_P1;HPM_P2
2021/07/11 00:00:23;;;;;;;15.35;5.78;;;;;;;21.81;64.79;101105.47;1814091;77;25662;-60
2021/07/11 00:02:51;;;;;;;;;;;;;;;21.78;64.76;101104.49;1848193;77;25638;-60
2021/07/11 00:05:21;;;;;;;14.07;5.72;;;;;;;21.77;64.52;101105.53;1836579;77;25703;-60
2021/07/11 00:07:48;;;;;;;19.42;6.28;;;;;;;21.73;65.03;101101.53;1820611;77;25667;-60
2021/07/11 00:10:17;;;;;;;13.72;5.95;;;;;;;21.73;64.76;101102.36;1821643;77;26886;-61
2021/07/11 00:12:47;;;;;;;24.50;6.53;;;;;;;21.73;65.40;101100.99;1844248;77;25480;-60
2021/07/11 00:15:18;;;;;;;15.53;6.53;;;;;;;21.70;64.99;101101.92;1841705;77;25732;-60
2021/07/11 00:17:46;;;;;;;12.90;6.10;;;;;;;21.68;64.82;101094.43;1848452;77;25729;-60
2021/07/11 00:20:16;;;;;;;18.95;6.00;;;;;;;21.69;64.97;101098.36;1831007;77;25778;-60
2021/07/11 00:22:43;;;;;;;15.40;5.92;;;;;;;21.71;65.14;101098.14;1829465;77;27462;-60
2021/07/11 00:25:16;;;;;;;17.50;6.03;;;;;;;21.72;65.03;101095.19;1848271;77;25668;-61
2021/07/11 00:27:45;;;;;;;15.10;6.50;;;;;;;21.76;65.01;101093.42;1845241;77;25686;-60
2021/07/11 00:30:14;;;;;;;19.82;6.12;;;;;;;21.79;64.72;101099.34;1833588;77;25681;-60
2021/07/11 00:32:41;;;;;;;11.10;5.67;;;;;;;21.78;65.34;101099.55;1847374;77;25574;-60
2021/07/11 00:35:10;;;;;;;16.15;5.83;;;;;;;21.72;65.17;101101.20;1848218;77;27454;-60
2021/07/11 00:37:37;;;;;;;17.75;5.75;;;;;;;21.71;65.05;101103.62;1848042;76;26490;-60
2021/07/11 00:40:07;;;;;;;19.60;5.25;;;;;;;21.71;65.18;101104.45;1846866;77;25757;-60
2021/07/11 00:42:35;;;;;;;16.57;6.35;;;;;;;21.73;65.17;101101.53;1847245;77;25820;-60
2021/07/11 00:45:05;;;;;;;18.27;6.47;;;;;;;21.72;65.03;101103.41;1841454;77;25717;-60
2021/07/11 00:47:40;;;;;;;17.48;6.47;;;;;;;21.74;64.90;101104.56;1828005;77;27521;-61
2021/07/11 00:50:09;;;;;;;;;;;;;;;21.73;64.86;101110.58;1831138;78;25452;-61
2021/07/11 00:52:39;;;;;;;22.73;6.47;;;;;;;21.71;64.87;101101.70;1823866;77;25726;-60
2021/07/11 00:55:10;;;;;;;22.73;6.75;;;;;;;21.69;64.46;101098.36;1811890;78;25449;-60
2021/07/11 00:57:37;;;;;;;14.63;5.90;;;;;;;21.65;64.25;101098.96;1820687;78;25899;-61
2021/07/11 01:00:11;;;;;;;21.62;7.10;;;;;;;21.60;64.17;101092.72;1819119;78;28560;-60
2021/07/11 01:02:56;;;;;;;17.30;7.10;;;;;;;21.53;64.47;101089.04;1824907;78;25681;-60
2021/07/11 01:05:24;;;;;;;;;;;;;;;21.44;64.88;101088.37;1811324;78;25849;-61
2021/07/11 01:08:18;;;;;;;15.45;6.25;;;;;;;21.33;64.61;101084.81;1806822;79;25789;-60
2021/07/11 01:11:04;;;;;;;17.57;6.90;;;;;;;21.25;64.87;101083.93;1811184;78;25827;-60
2021/07/11 01:13:35;;;;;;;24.10;6.33;;;;;;;21.18;65.36;101084.91;1823433;77;27486;-60
2021/07/11 01:16:10;;;;;;;20.65;6.50;;;;;;;21.11;65.89;101089.82;1809067;78;25731;-60
2021/07/11 01:18:41;;;;;;;23.70;7.20;;;;;;;21.05;66.60;101094.73;1828059;77;25690;-60
2021/07/11 01:21:19;;;;;;;17.45;7.37;;;;;;;20.98;66.31;101097.91;1832145;77;25581;-60
2021/07/11 01:24:07;;;;;;;18.57;7.37;;;;;;;20.91;66.99;101095.13;1827999;78;25840;-60
2021/07/11 01:26:36;;;;;;;14.70;6.37;;;;;;;20.90;67.04;101093.44;1825001;78;28351;-60
2021/07/11 01:29:05;;;;;;;22.67;7.95;;;;;;;20.89;67.48;101097.22;1808037;78;25798;-60
2021/07/11 01:31:34;;;;;;;18.32;8.10;;;;;;;20.86;67.16;101086.66;1821043;78;25783;-60
2021/07/11 01:34:02;;;;;;;22.65;8.80;;;;;;;20.89;67.03;101083.54;1825479;77;25769;-60
2021/07/11 01:36:31;;;;;;;17.15;7.65;;;;;;;20.92;67.12;101086.39;1826839;77;25734;-61
2021/07/11 01:38:59;;;;;;;17.70;9.40;;;;;;;20.94;67.00;101087.88;1825817;77;27475;-60
2021/07/11 01:41:28;;;;;;;20.12;8.13;;;;;;;20.99;66.90;101098.77;1831513;78;25725;-60
2021/07/11 01:43:58;;;;;;;19.40;8.55;;;;;;;21.05;66.79;101108.91;1827465;78;25886;-61
2021/07/11 01:46:26;;;;;;;28.67;8.05;;;;;;;21.07;66.91;101102.19;1793585;78;26097;-61
2021/07/11 01:48:55;;;;;;;17.85;8.55;;;;;;;21.03;66.86;101098.67;1834083;78;25837;-61
2021/07/11 01:51:23;;;;;;;17.20;8.30;;;;;;;20.98;66.74;101096.53;1792231;78;28092;-61
2021/07/11 01:53:53;;;;;;;17.02;8.15;;;;;;;20.95;66.57;101099.15;1833591;77;25946;-61
2021/07/11 01:56:22;;;;;;;18.40;8.55;;;;;;;20.97;66.82;101097.61;1834448;76;25665;-61
2021/07/11 01:58:49;;;;;;;17.73;8.15;;;;;;;21.00;66.63;101110.03;1781525;78;25770;-61
2021/07/11 02:01:20;;;;;;;17.10;7.58;;;;;;;20.93;66.74;101108.59;1834544;78;25495;-61
2021/07/11 02:03:49;;;;;;;21.35;8.03;;;;;;;20.92;66.69;101109.14;1832486;76;27476;-61
2021/07/11 02:06:15;;;;;;;20.12;7.95;;;;;;;20.95;66.79;101107.35;1817486;76;25682;-61
2021/07/11 02:08:44;;;;;;;22.32;7.83;;;;;;;20.97;66.82;101105.81;1833430;77;25480;-61
2021/07/11 02:11:16;;;;;;;16.55;7.85;;;;;;;21.00;66.62;101104.56;1827543;78;26667;-61
2021/07/11 02:13:53;;;;;;;20.45;8.30;;;;;;;21.02;66.49;101106.59;1831111;76;25779;-61
2021/07/11 02:16:34;;;;;;;17.50;8.28;;;;;;;20.95;66.51;101101.05;1833318;78;28218;-61
2021/07/11 02:19:05;;;;;;;23.83;8.60;;;;;;;20.95;66.28;101113.36;1834070;77;33325;-61
2021/07/11 02:21:34;;;;;;;23.95;8.60;;;;;;;20.94;66.36;101116.59;1834492;78;25821;-61
2021/07/11 02:24:05;;;;;;;17.23;8.60;;;;;;;20.97;66.41;101118.63;1834109;78;26427;-61
2021/07/11 02:26:38;;;;;;;18.25;8.78;;;;;;;20.96;66.27;101112.32;1821566;78;25973;-61
2021/07/11 02:29:07;;;;;;;40.43;9.95;;;;;;;20.90;66.31;101111.21;1827430;78;27826;-61
2021/07/11 02:31:39;;;;;;;16.17;8.30;;;;;;;20.86;66.07;101114.00;1833664;78;25516;-61
2021/07/11 02:34:11;;;;;;;24.25;8.55;;;;;;;20.84;65.92;101109.27;1834142;77;25726;-61
2021/07/11 02:36:49;;;;;;;17.27;9.75;;;;;;;20.83;65.88;101108.08;1834553;78;25769;-61
2021/07/11 02:39:20;;;;;;;20.25;9.25;;;;;;;20.82;65.79;101109.98;1826005;76;25705;-61
2021/07/11 02:41:53;;;;;;;23.02;9.13;;;;;;;20.79;65.82;101110.36;1823227;76;27572;-61
2021/07/11 02:44:22;;;;;;;19.65;8.90;;;;;;;20.78;65.82;101112.77;1784853;78;32314;-61
2021/07/11 02:47:00;;;;;;;19.70;9.03;;;;;;;20.77;65.79;101113.30;1830905;78;25666;-60
2021/07/11 02:49:31;;;;;;;33.58;9.43;;;;;;;20.76;65.83;101115.71;1830487;76;25504;-61
2021/07/11 02:52:04;;;;;;;21.95;9.85;;;;;;;20.76;65.81;101117.58;1822472;77;25752;-60
2021/07/11 02:54:45;;;;;;;18.87;9.43;;;;;;;20.77;66.12;101115.17;1823088;78;27074;-61
2021/07/11 02:57:18;;;;;;;22.10;8.48;;;;;;;20.77;66.16;101114.67;1828142;78;25686;-61
2021/07/11 02:59:47;;;;;;;21.05;8.83;;;;;;;20.74;66.58;101110.95;1811139;78;25493;-60
2021/07/11 03:02:16;;;;;;;24.25;8.38;;;;;;;20.76;66.95;101114.84;1828404;78;25726;-61
2021/07/11 03:04:45;;;;;;;18.57;8.50;;;;;;;20.78;67.03;101120.47;1828072;78;25879;-61
2021/07/11 03:07:12;;;;;;;21.65;7.75;;;;;;;20.82;66.86;101120.92;1827986;78;27414;-61
2021/07/11 03:09:44;;;;;;;16.87;8.18;;;;;;;20.87;66.96;101120.34;1828300;77;25506;-60
2021/07/11 03:12:12;;;;;;;18.87;8.80;;;;;;;20.87;67.07;101127.17;1795249;79;25726;-61
2021/07/11 03:14:40;;;;;;;17.12;7.87;;;;;;;20.75;66.85;101123.58;1812515;78;25711;-60
2021/07/11 03:17:11;;;;;;;22.82;8.03;;;;;;;20.67;66.89;101129.66;1828071;78;25746;-60
2021/07/11 03:19:41;;;;;;;21.90;8.05;;;;;;;20.68;67.19;101127.25;1827469;78;27389;-61
2021/07/11 03:22:10;;;;;;;20.35;8.18;;;;;;;20.69;67.83;101133.05;1820722;78;25998;-60
2021/07/11 03:24:40;;;;;;;13.78;7.70;;;;;;;20.62;67.78;101128.36;1828226;77;25746;-60
2021/07/11 03:27:09;;;;;;;19.40;7.33;;;;;;;20.57;67.89;101128.62;1827590;78;25787;-60
2021/07/11 03:29:52;;;;;;;27.07;8.13;;;;;;;20.48;68.11;101125.17;1827970;78;25702;-60
2021/07/11 03:32:16;;;;;;;19.35;8.25;;;;;;;20.42;68.25;101124.56;1824258;78;27529;-60
2021/07/11 03:34:47;;;;;;;22.05;8.18;;;;;;;20.38;68.44;101122.73;1824627;77;25700;-60
2021/07/11 03:37:19;;;;;;;16.25;8.23;;;;;;;20.37;68.40;101127.87;1828530;77;25755;-60
2021/07/11 03:39:50;;;;;;;24.70;7.55;;;;;;;20.40;68.43;101128.86;1828157;77;25802;-60
2021/07/11 03:42:22;;;;;;;11.45;7.70;;;;;;;20.48;68.62;101126.54;1802672;78;25773;-60
2021/07/11 03:44:55;;;;;;;18.40;8.18;;;;;;;20.54;68.18;101131.22;1820609;78;27393;-60
2021/07/11 03:47:27;;;;;;;19.65;8.05;;;;;;;20.59;67.94;101131.47;1834743;77;25504;-62
2021/07/11 03:50:10;;;;;;;17.55;8.05;;;;;;;20.58;67.91;101109.81;1830353;77;25699;-61
2021/07/11 03:52:41;;;;;;;;;;;;;;;20.72;67.67;101119.00;1797279;79;25651;-61
2021/07/11 03:55:11;;;;;;;18.45;8.70;;;;;;;20.74;67.47;101121.89;1797000;78;25778;-61
2021/07/11 03:57:40;;;;;;;18.90;8.25;;;;;;;20.79;67.61;101124.03;1834394;77;27447;-61
2021/07/11 04:00:11;;;;;;;17.55;6.90;;;;;;;20.79;67.74;101123.53;1839059;78;25417;-61
2021/07/11 04:02:42;;;;;;;19.17;8.20;;;;;;;20.82;67.83;101116.82;1839588;76;25784;-61
2021/07/11 04:05:12;;;;;;;13.40;7.12;;;;;;;20.81;67.70;101117.86;1825456;77;25811;-62
2021/07/11 04:07:50;;;;;;;15.08;7.35;;;;;;;20.78;67.44;101115.50;1821951;78;25943;-62
2021/07/11 04:10:28;;;;;;;18.00;8.43;;;;;;;20.75;67.95;101120.02;1838418;76;28498;-61
2021/07/11 04:12:58;;;;;;;24.92;8.75;;;;;;;20.68;68.15;101117.68;1831333;77;25837;-61
2021/07/11 04:15:31;;;;;;;17.75;7.87;;;;;;;20.57;68.28;101118.55;1799486;78;25696;-59
2021/07/11 04:18:08;;;;;;;12.35;7.35;;;;;;;20.49;68.42;101126.34;1837550;78;25679;-59
2021/07/11 04:20:37;;;;;;;17.55;8.68;;;;;;;20.45;69.20;101128.28;1835672;78;25779;-60
2021/07/11 04:23:06;;;;;;;21.20;8.53;;;;;;;20.42;68.78;101128.66;1810159;77;27456;-60
2021/07/11 04:25:40;;;;;;;25.52;8.30;;;;;;;20.42;68.84;101125.42;1823019;76;25786;-60
2021/07/11 04:28:06;;;;;;;16.10;7.60;;;;;;;20.43;69.03;101130.35;1826297;78;25399;-60
2021/07/11 04:30:36;;;;;;;14.35;8.13;;;;;;;20.46;69.21;101136.81;1837008;78;25705;-60
2021/07/11 04:33:04;;;;;;;22.00;7.62;;;;;;;20.48;69.13;101122.44;1839572;77;25762;-60
2021/07/11 04:35:31;;;;;;;20.68;7.22;;;;;;;20.57;69.34;101129.48;1839966;78;27386;-60
2021/07/11 04:37:58;;;;;;;14.85;6.90;;;;;;;20.60;69.08;101130.44;1830841;77;25802;-60
2021/07/11 04:40:25;;;;;;;13.25;7.55;;;;;;;20.71;69.30;101129.60;1839020;78;25532;-60
2021/07/11 04:42:52;;;;;;;22.02;7.72;;;;;;;20.77;68.56;101125.61;1824962;78;26152;-60
2021/07/11 04:45:19;;;;;;;16.52;7.15;;;;;;;20.88;68.42;101126.13;1838078;78;26391;-60
2021/07/11 04:47:46;;;;;;;19.17;7.58;;;;;;;20.99;68.23;101128.31;1804832;78;27544;-61
2021/07/11 04:50:13;;;;;;;14.25;6.62;;;;;;;21.08;67.76;101124.40;1827278;78;25671;-60
2021/07/11 04:52:41;;;;;;;26.40;8.20;;;;;;;21.14;67.45;101121.40;1828206;78;25489;-61
2021/07/11 04:55:12;;;;;;;15.05;8.20;;;;;;;21.15;66.98;101123.09;1828285;78;25717;-60
2021/07/11 04:57:40;;;;;;;15.68;7.72;;;;;;;21.18;66.91;101119.97;1825231;77;25779;-60
2021/07/11 05:00:11;;;;;;;16.55;9.03;;;;;;;21.19;66.73;101128.51;1828137;78;27351;-59
2021/07/11 05:02:39;;;;;;;20.05;7.83;;;;;;;21.22;66.86;101125.89;1827946;77;25860;-60
2021/07/11 05:05:08;;;;;;;15.30;8.03;;;;;;;21.18;66.91;101129.55;1811403;77;25697;-60
2021/07/11 05:07:37;;;;;;;17.30;7.28;;;;;;;21.22;66.95;101130.83;1823589;77;25792;-60
2021/07/11 05:10:07;;;;;;;17.12;7.58;;;;;;;21.28;66.85;101131.09;1822859;77;25698;-60
2021/07/11 05:12:34;;;;;;;12.78;7.42;;;;;;;21.33;67.11;101135.44;1825896;78;27455;-60
2021/07/11 05:15:03;;;;;;;15.95;7.37;;;;;;;21.38;66.64;101126.13;1824864;78;25798;-60
2021/07/11 05:17:30;;;;;;;14.00;7.03;;;;;;;21.38;66.74;101126.13;1828508;77;26192;-60
2021/07/11 05:19:57;;;;;;;19.57;7.10;;;;;;;21.40;66.63;101126.75;1827600;78;25773;-60
2021/07/11 05:22:24;;;;;;;18.42;7.50;;;;;;;21.48;66.57;101121.12;1822961;78;25662;-60
2021/07/11 05:24:51;;;;;;;21.17;6.90;;;;;;;21.52;66.39;101123.79;1828026;77;27470;-60
2021/07/11 05:27:19;;;;;;;22.02;7.03;;;;;;;21.58;66.17;101120.27;1824416;77;25837;-60
2021/07/11 05:29:46;;;;;;;21.97;6.87;;;;;;;21.70;66.02;101125.19;1828035;78;25741;-60
2021/07/11 05:32:13;;;;;;;18.00;7.83;;;;;;;21.77;65.73;101127.98;1826579;78;25703;-61
2021/07/11 05:34:40;;;;;;;18.62;7.22;;;;;;;21.83;65.66;101127.99;1825414;78;25842;-60
2021/07/11 05:37:07;;;;;;;18.00;7.72;;;;;;;21.86;65.54;101122.66;1825493;77;27442;-60
2021/07/11 05:39:34;;;;;;;15.15;8.00;;;;;;;21.87;65.64;101118.34;1820895;77;25466;-60
2021/07/11 05:42:01;;;;;;;13.30;8.23;;;;;;;21.94;65.60;101122.99;1826920;78;25693;-60
2021/07/11 05:44:28;;;;;;;20.12;7.53;;;;;;;22.01;65.23;101129.34;1809483;78;25837;-60
2021/07/11 05:46:55;;;;;;;21.10;8.80;;;;;;;22.08;64.93;101130.75;1800233;78;25920;-60
2021/07/11 05:49:25;;;;;;;18.73;8.00;;;;;;;22.14;64.75;101121.73;1833086;77;28171;-60
2021/07/11 05:51:53;;;;;;;22.73;8.40;;;;;;;22.19;64.86;101121.41;1834275;76;25801;-60
2021/07/11 05:54:21;;;;;;;21.60;8.28;;;;;;;22.26;64.78;101120.08;1834360;76;25684;-60
2021/07/11 05:56:48;;;;;;;22.27;7.70;;;;;;;22.34;64.76;101117.69;1845201;77;25740;-60
2021/07/11 05:59:18;;;;;;;18.15;8.13;;;;;;;22.43;64.83;101119.22;1848258;77;25752;-61
2021/07/11 06:01:48;;;;;;;24.23;7.83;;;;;;;22.54;64.55;101119.14;1848550;77;27415;-60
2021/07/11 06:04:15;;;;;;;16.52;7.95;;;;;;;22.62;64.54;101115.37;1820089;77;25714;-60
2021/07/11 06:06:42;;;;;;;20.77;8.75;;;;;;;22.71;64.21;101116.86;1817617;77;25836;-60
2021/07/11 06:09:08;;;;;;;11.43;7.22;;;;;;;22.75;64.17;101109.89;1848467;77;26176;-60
2021/07/11 06:11:35;;;;;;;30.02;8.05;;;;;;;22.85;64.09;101104.01;1848221;77;25701;-60
2021/07/11 06:14:03;;;;;;;22.87;8.38;;;;;;;22.97;64.12;101104.22;1847648;77;27477;-60
2021/07/11 06:16:30;;;;;;;15.75;7.90;;;;;;;23.07;63.88;101103.78;1848198;77;26262;-60
2021/07/11 06:18:57;;;;;;;17.98;8.83;;;;;;;23.15;63.46;101109.06;1848156;77;25764;-61
2021/07/11 06:21:24;;;;;;;30.05;9.03;;;;;;;23.22;63.63;101109.09;1848380;77;25665;-61
2021/07/11 06:23:51;;;;;;;20.62;8.65;;;;;;;23.28;63.24;101110.98;1829430;77;25771;-61
2021/07/11 06:26:20;;;;;;;20.17;8.10;;;;;;;23.35;63.09;101109.61;1804915;79;27466;-61
2021/07/11 06:28:46;;;;;;;20.60;8.50;;;;;;;23.43;63.11;101105.27;1814666;77;25866;-61
2021/07/11 06:31:13;;;;;;;17.48;9.00;;;;;;;23.51;62.90;101111.90;1833828;77;25990;-61
2021/07/11 06:33:42;;;;;;;17.80;8.68;;;;;;;23.60;62.71;101105.13;1848238;77;26242;-61
2021/07/11 06:36:11;;;;;;;18.15;8.98;;;;;;;23.65;62.39;101108.59;1845721;77;25709;-60
2021/07/11 06:38:38;;;;;;;14.43;8.98;;;;;;;23.66;62.68;101111.66;1843739;77;28823;-61
2021/07/11 06:41:07;;;;;;;14.25;7.62;;;;;;;23.66;62.49;101108.91;1843648;76;25991;-61
2021/07/11 06:43:33;;;;;;;17.35;8.90;;;;;;;23.69;62.44;101112.61;1840433;77;25723;-61
2021/07/11 06:46:01;;;;;;;18.25;8.48;;;;;;;23.77;62.33;101107.39;1832051;77;25803;-61
2021/07/11 06:48:43;;;;;;;12.98;8.13;;;;;;;23.85;62.29;101106.33;1828328;77;25824;-65
2021/07/11 06:51:07;;;;;;;21.00;8.03;;;;;;;23.94;62.48;101109.69;1828523;78;27646;-60
2021/07/11 06:53:35;;;;;;;13.83;7.10;;;;;;;24.04;62.39;101111.45;1825914;77;25687;-60
2021/07/11 06:56:04;;;;;;;17.67;7.78;;;;;;;24.16;62.19;101114.38;1833705;77;25658;-60
2021/07/11 06:58:32;;;;;;;15.45;8.00;;;;;;;24.25;62.14;101113.05;1826077;77;25754;-61
2021/07/11 07:00:59;;;;;;;25.90;7.75;;;;;;;24.37;61.87;101107.72;1834508;78;25799;-61
2021/07/11 07:03:26;;;;;;;26.93;7.53;;;;;;;24.50;61.80;101105.42;1825812;77;27414;-61
2021/07/11 07:05:54;;;;;;;16.50;7.33;;;;;;;24.62;61.50;101110.50;1826325;78;25414;-60
2021/07/11 07:08:24;;;;;;;18.07;8.13;;;;;;;24.75;61.23;101112.34;1830108;78;25724;-61
2021/07/11 07:10:50;;;;;;;14.70;8.25;;;;;;;24.88;60.90;101113.33;1826727;78;26205;-60
2021/07/11 07:13:17;;;;;;;19.12;8.00;;;;;;;24.99;60.50;101111.23;1827674;77;25793;-60
2021/07/11 07:15:44;;;;;;;20.75;7.80;;;;;;;25.10;60.33;101111.03;1826791;78;27459;-60
2021/07/11 07:18:11;;;;;;;16.12;7.47;;;;;;;25.20;60.33;101107.23;1815708;77;25820;-62
2021/07/11 07:20:39;;;;;;;18.95;10.85;;;;;;;25.35;60.27;101107.41;1814915;77;25675;-61
2021/07/11 07:23:06;;;;;;;19.87;7.78;;;;;;;25.43;59.95;101103.88;1814876;77;25485;-60
2021/07/11 07:25:33;;;;;;;19.37;7.67;;;;;;;25.54;59.68;101102.27;1815029;77;25739;-60
2021/07/11 07:27:59;;;;;;;11.20;7.80;;;;;;;25.67;59.13;101110.09;1837884;78;27457;-61
2021/07/11 07:30:26;;;;;;;15.68;7.30;;;;;;;25.76;59.00;101110.09;1839733;78;25828;-61
2021/07/11 07:32:54;;;;;;;14.30;6.45;;;;;;;25.84;58.69;101100.14;1839532;78;25765;-61
2021/07/11 07:35:22;;;;;;;16.73;6.70;;;;;;;25.94;58.29;101107.34;1839771;78;25813;-62
2021/07/11 07:37:50;;;;;;;14.15;6.20;;;;;;;26.04;58.30;101110.92;1840010;77;25666;-61
2021/07/11 07:40:20;;;;;;;19.10;7.10;;;;;;;26.14;57.89;101109.56;1821585;78;28225;-62
2021/07/11 07:42:49;;;;;;;14.83;6.95;;;;;;;26.23;57.47;101111.75;1803881;78;25500;-60
2021/07/11 07:45:17;;;;;;;15.80;6.53;;;;;;;26.35;57.60;101119.23;1829407;78;25710;-61
2021/07/11 07:47:45;;;;;;;14.00;6.17;;;;;;;26.45;57.72;101117.32;1823901;77;25729;-61
2021/07/11 07:50:13;;;;;;;12.25;5.87;;;;;;;26.56;56.60;101106.84;1822791;78;25788;-61
2021/07/11 07:52:40;;;;;;;13.32;5.90;;;;;;;26.65;56.31;101105.43;1818383;78;27449;-61
2021/07/11 07:55:09;;;;;;;18.50;5.67;;;;;;;26.75;55.67;101107.63;1823051;77;25725;-61
2021/07/11 07:57:37;;;;;;;16.10;5.37;;;;;;;26.86;53.58;101111.52;1808658;78;25739;-61
2021/07/11 08:00:10;;;;;;;16.50;5.90;;;;;;;26.93;53.70;101110.86;1821845;78;25819;-61
2021/07/11 08:02:40;;;;;;;10.55;5.97;;;;;;;27.02;54.08;101114.95;1821070;77;26469;-60
2021/07/11 08:05:09;;;;;;;10.28;5.60;;;;;;;27.11;54.09;101116.84;1816129;77;27464;-60
2021/07/11 08:07:39;;;;;;;11.43;5.10;;;;;;;27.21;51.81;101108.51;1817955;78;25799;-61
2021/07/11 08:10:09;;;;;;;13.62;6.15;;;;;;;27.29;51.55;101110.35;1818077;77;25863;-61
2021/07/11 08:12:39;;;;;;;20.40;6.03;;;;;;;27.39;51.04;101113.88;1818993;78;25673;-60
2021/07/11 08:15:09;;;;;;;10.18;5.12;;;;;;;27.49;51.30;101111.95;1820676;78;25766;-62
2021/07/11 08:17:37;;;;;;;15.50;5.65;;;;;;;27.61;51.23;101107.78;1816826;78;27584;-60
2021/07/11 08:20:06;;;;;;;14.45;5.50;;;;;;;27.72;50.57;101104.17;1808004;78;25438;-61
2021/07/11 08:22:33;;;;;;;11.88;5.50;;;;;;;27.86;48.64;101110.80;1828118;78;25501;-60
2021/07/11 08:25:00;;;;;;;14.30;5.55;;;;;;;27.95;49.18;101103.80;1813645;78;25659;-60
2021/07/11 08:27:27;;;;;;;18.32;5.80;;;;;;;28.12;49.66;101105.30;1794499;78;25694;-60
2021/07/11 08:29:54;;;;;;;13.25;5.83;;;;;;;28.25;48.66;101107.75;1794348;80;28131;-60
2021/07/11 08:32:23;;;;;;;15.58;5.33;;;;;;;28.37;48.81;101106.34;1793805;80;25950;-61
2021/07/11 08:34:50;;;;;;;16.55;5.55;;;;;;;28.50;48.47;101109.34;1794182;80;25798;-61
2021/07/11 08:37:17;;;;;;;13.05;5.55;;;;;;;28.67;48.89;101104.38;1794383;80;26207;-61
2021/07/11 08:39:44;;;;;;;14.68;5.25;;;;;;;28.76;48.24;101102.91;1809167;77;25877;-61
2021/07/11 08:42:12;;;;;;;10.38;4.80;;;;;;;28.85;47.75;101094.48;1806483;78;27174;-61
2021/07/11 08:44:41;;;;;;;18.80;5.92;;;;;;;28.94;47.79;101096.84;1800962;78;25555;-62
2021/07/11 08:47:11;;;;;;;13.10;4.97;;;;;;;29.07;47.40;101096.48;1834136;78;25746;-61
2021/07/11 08:49:38;;;;;;;11.20;4.90;;;;;;;29.17;47.15;101090.28;1844629;77;25962;-61
2021/07/11 08:52:06;;;;;;;17.37;5.35;;;;;;;29.32;47.06;101093.84;1831008;77;25889;-62
2021/07/11 08:54:33;;;;;;;10.82;4.80;;;;;;;29.51;46.58;101087.47;1830822;77;27381;-60
2021/07/11 08:57:06;;;;;;;8.63;5.08;;;;;;;29.71;45.76;101084.13;1827500;77;25767;-62
2021/07/11 08:59:41;;;;;;;12.20;5.05;;;;;;;29.92;45.40;101076.93;1832661;77;25721;-61
2021/07/11 09:02:11;;;;;;;21.00;5.42;;;;;;;30.11;46.05;101080.75;1816656;77;25660;-61
2021/07/11 09:04:46;;;;;;;10.40;5.37;;;;;;;30.28;45.34;101070.95;1823433;77;25778;-61
2021/07/11 09:07:22;;;;;;;9.68;5.28;;;;;;;30.43;44.57;101074.44;1822910;77;27470;-61
2021/07/11 09:09:58;;;;;;;13.45;5.60;;;;;;;30.62;44.38;101065.77;1817424;77;25733;-61
2021/07/11 09:12:27;;;;;;;12.25;5.53;;;;;;;30.81;44.60;101071.74;1842976;77;25777;-61
2021/07/11 09:14:56;;;;;;;10.85;5.72;;;;;;;30.99;43.89;101066.31;1845300;77;25751;-63
2021/07/11 09:17:25;;;;;;;8.35;5.55;;;;;;;31.18;42.81;101068.98;1810578;77;27284;-62
2021/07/11 09:19:54;;;;;;;10.32;5.37;;;;;;;31.38;42.50;101062.70;1845058;77;29834;-62
2021/07/11 09:22:25;;;;;;;13.03;5.53;;;;;;;31.58;42.06;101063.09;1845591;77;25721;-62
2021/07/11 09:25:01;;;;;;;12.70;5.50;;;;;;;31.84;41.72;101060.73;1845414;77;25698;-61
2021/07/11 09:27:34;;;;;;;14.68;5.45;;;;;;;32.10;41.78;101056.63;1819745;77;26120;-60
2021/07/11 09:30:05;;;;;;;11.60;5.50;;;;;;;32.38;40.55;101058.66;1817243;77;25751;-63
2021/07/11 09:32:36;;;;;;;16.32;5.33;;;;;;;32.66;39.98;101062.56;1834414;77;27558;-60
2021/07/11 09:35:14;;;;;;;10.82;4.83;;;;;;;32.81;39.92;101064.00;1837677;77;25738;-60
2021/07/11 09:37:58;;;;;;;10.45;5.03;;;;;;;33.05;38.86;101062.02;1806314;77;25683;-62
2021/07/11 09:40:27;;;;;;;13.22;5.15;;;;;;;33.35;39.08;101070.89;1834760;77;25752;-63
2021/07/11 09:42:57;;;;;;;16.15;4.95;;;;;;;33.69;37.33;101066.60;1811669;77;25684;-60
2021/07/11 09:45:28;;;;;;;15.00;5.12;;;;;;;33.92;36.92;101068.47;1843809;77;28077;-63
2021/07/11 09:48:08;;;;;;;9.88;4.33;;;;;;;34.25;36.35;101063.23;1844867;77;26239;-60
2021/07/11 09:50:35;;;;;;;16.67;5.92;;;;;;;34.58;36.08;101072.80;1837618;77;25686;-60
2021/07/11 09:53:05;;;;;;;18.12;5.50;;;;;;;34.99;35.76;101062.44;1831711;78;26383;-60
2021/07/11 09:55:35;;;;;;;17.85;5.35;;;;;;;35.32;34.65;101065.43;1835044;78;26111;-62
2021/07/11 09:58:11;;;;;;;15.50;5.40;;;;;;;35.63;34.27;101066.51;1839549;78;27452;-62
2021/07/11 10:00:43;;;;;;;14.83;4.55;;;;;;;35.95;33.73;101062.19;1839487;78;25587;-62
2021/07/11 10:03:15;;;;;;;12.60;4.80;;;;;;;36.20;32.49;101060.98;1839776;77;25602;-61
2021/07/11 10:05:44;;;;;;;8.80;4.67;;;;;;;36.46;32.68;101050.23;1833058;77;26164;-61
2021/07/11 10:08:13;;;;;;;9.03;4.97;;;;;;;36.86;31.16;101044.21;1811467;77;25679;-62
2021/07/11 10:10:42;;;;;;;9.50;4.37;;;;;;;36.92;29.98;101042.19;1839802;78;28152;-61
2021/07/11 10:13:10;;;;;;;13.80;4.85;;;;;;;36.72;30.31;101039.97;1839400;78;25741;-62
2021/07/11 10:15:39;;;;;;;10.45;4.60;;;;;;;36.64;30.03;101038.73;1839607;78;25690;-63
2021/07/11 10:18:13;;;;;;;9.38;4.75;;;;;;;36.87;30.81;101029.64;1839429;78;25706;-62
2021/07/11 10:20:49;;;;;;;10.50;5.08;;;;;;;37.29;30.22;101031.94;1838115;78;25671;-62
2021/07/11 10:23:33;;;;;;;7.65;4.53;;;;;;;37.68;29.30;101030.59;1837176;78;27605;-61
2021/07/11 10:26:13;;;;;;;13.65;4.97;;;;;;;38.15;28.71;101037.41;1838702;77;25430;-62
2021/07/11 10:28:45;;;;;;;11.12;4.25;;;;;;;38.86;27.51;101034.56;1839585;78;25839;-62
2021/07/11 10:31:27;;;;;;;7.53;4.15;;;;;;;39.44;26.79;101031.83;1839816;77;25666;-62
2021/07/11 10:33:57;;;;;;;7.58;4.12;;;;;;;39.76;25.33;101028.38;1839390;77;25749;-62
2021/07/11 10:36:35;;;;;;;10.98;4.53;;;;;;;39.45;26.15;101024.45;1839984;78;27395;-62
2021/07/11 10:39:05;;;;;;;10.88;4.35;;;;;;;38.89;26.68;101020.42;1819848;77;25719;-62
2021/07/11 10:41:33;;;;;;;11.83;3.90;;;;;;;38.34;26.83;101009.15;1803830;78;25722;-63
2021/07/11 10:44:14;;;;;;;6.42;3.87;;;;;;;37.95;27.44;101005.59;1816259;77;25777;-63
2021/07/11 10:46:57;;;;;;;11.25;4.17;;;;;;;37.77;27.63;101001.19;1839636;78;25766;-62
2021/07/11 10:49:30;;;;;;;13.60;4.83;;;;;;;37.49;27.48;101004.63;1839471;78;27463;-63
2021/07/11 10:52:05;;;;;;;16.32;4.80;;;;;;;38.24;26.71;101009.37;1815478;78;25661;-63
2021/07/11 10:54:36;;;;;;;9.00;4.42;;;;;;;38.16;26.87;101008.73;1839963;78;25512;-62
2021/07/11 10:57:07;;;;;;;12.50;4.40;;;;;;;37.68;27.34;101015.16;1839866;78;25802;-62
2021/07/11 10:59:40;;;;;;;11.00;4.40;;;;;;;37.58;27.99;101016.78;1839600;78;25715;-62
2021/07/11 11:02:20;;;;;;;16.50;5.12;;;;;;;37.13;28.91;101014.58;1839770;77;27472;-62
2021/07/11 11:05:05;;;;;;;24.45;5.37;;;;;;;37.03;31.01;101013.41;1829349;77;25715;-62
2021/07/11 11:07:55;;;;;;;33.73;5.47;;;;;;;36.17;29.80;101025.18;1807625;78;25542;-62
2021/07/11 11:10:33;;;;;;;33.10;5.30;;;;;;;34.89;31.76;101048.80;1839538;77;25668;-62
2021/07/11 11:13:19;;;;;;;14.63;4.45;;;;;;;34.01;35.66;101056.43;1839441;78;25959;-63
2021/07/11 11:16:14;;;;;;;7.65;2.80;;;;;;;33.37;35.17;101047.76;1839754;78;28514;-62
2021/07/11 11:18:43;;;;;;;20.65;4.15;;;;;;;32.69;34.84;101036.38;1839865;78;25600;-62
2021/07/11 11:21:17;;;;;;;18.12;3.70;;;;;;;32.14;35.23;101038.25;1817607;78;25741;-62
2021/07/11 11:23:51;;;;;;;18.70;3.70;;;;;;;31.96;36.97;101036.84;1802594;79;25734;-62
2021/07/11 11:26:28;;;;;;;8.65;3.33;;;;;;;31.80;38.78;101041.52;1802784;78;25724;-61
2021/07/11 11:28:58;;;;;;;21.45;3.90;;;;;;;31.27;40.73;101032.34;1803078;79;27496;-62
2021/07/11 11:31:34;;;;;;;23.90;3.92;;;;;;;30.85;42.10;101022.34;1802630;79;25943;-61
2021/07/11 11:34:08;;;;;;;19.02;4.08;;;;;;;30.68;44.29;101002.23;1802750;79;26341;-61